« Back
NWS Peachtree City, Ga » Text Product » ATL Terminal Aerodrome Forecast


Printer-friendly Version
Current Version              Previous Versions:   1  2  3  4  5  6  7  8  9  

Terminal Aerodrome Forecast

100
FTUS42 KFFC 011500 AAB
TAFATL
TAF AMD
KATL 011556Z 0116/0218 29005KT P6SM SCT050
     FM020000 VRB03KT P6SM SKC
     FM021500 17004KT P6SM SCT045=

USA.gov is the U.S. government's official web portal to all federal, state and local government web resources and services.